Portada
METAR-TAF:

METAR-TAF

Aeroports :

Groote Eylandt, Austràlia

latitud: 13-58-30S, longitud: 136-27-36E, altitud: 16 m

Observació

L'informe es va fer fa 26 minuts, a les 11:00 UTC
Vent calma
Temperatura 22°C
Humitat 83%
Pressió 1016 hPa
Visibilitat 10 km o més

METAR: YGTE 181100Z AUTO 00000KT 9999 // ////// 22/19 Q1016

Hora: 20:56 (11:26 UTC)


TAF: manca

Observacions i pronòstics meteorològics de més de 4000 aeroports (METAR i TAF).

Les estacions disponibles són els punts grocs i vermells al mapa.

Posi el ratolí al punt desitjat per veure el nom de l'estació.

Feu clic per veure les observacions i els pronòstics meteorològics.

Per canviar el mapa: feu clic els botons verds amb una creu de color negre per apropar; al botó verd amb un guió per allunyar la imatge; o en les fletxes verdes per a mapes adjacents.


METAR-TAF: